sensor_id;sensor_type;location;lat;lon;timestamp;P1;durP1;ratioP1;P2;durP2;ratioP2
30185;SDS011;31152;49.190;8.122;2023-04-25T00:01:23;7.90;;;4.28;;
30185;SDS011;31152;49.190;8.122;2023-04-25T00:03:52;8.82;;;3.95;;
30185;SDS011;31152;49.190;8.122;2023-04-25T00:06:20;6.72;;;3.70;;
30185;SDS011;31152;49.190;8.122;2023-04-25T00:08:47;12.68;;;4.43;;
30185;SDS011;31152;49.190;8.122;2023-04-25T00:11:14;6.63;;;4.15;;
30185;SDS011;31152;49.190;8.122;2023-04-25T00:13:43;6.30;;;3.72;;
30185;SDS011;31152;49.190;8.122;2023-04-25T00:16:10;7.43;;;4.32;;
30185;SDS011;31152;49.190;8.122;2023-04-25T00:18:36;8.63;;;4.70;;
30185;SDS011;31152;49.190;8.122;2023-04-25T00:21:03;6.13;;;4.57;;
30185;SDS011;31152;49.190;8.122;2023-04-25T00:23:33;6.13;;;4.57;;
30185;SDS011;31152;49.190;8.122;2023-04-25T00:26:02;9.98;;;4.20;;
30185;SDS011;31152;49.190;8.122;2023-04-25T00:28:29;6.25;;;4.53;;
30185;SDS011;31152;49.190;8.122;2023-04-25T00:30:56;9.77;;;4.70;;
30185;SDS011;31152;49.190;8.122;2023-04-25T00:33:22;7.38;;;4.57;;
30185;SDS011;31152;49.190;8.122;2023-04-25T00:35:49;6.65;;;4.50;;
30185;SDS011;31152;49.190;8.122;2023-04-25T00:38:18;8.43;;;5.10;;
30185;SDS011;31152;49.190;8.122;2023-04-25T00:40:44;7.65;;;4.53;;
30185;SDS011;31152;49.190;8.122;2023-04-25T00:43:11;6.50;;;4.85;;
30185;SDS011;31152;49.190;8.122;2023-04-25T00:45:38;7.15;;;4.45;;
30185;SDS011;31152;49.190;8.122;2023-04-25T00:48:06;5.57;;;4.28;;
30185;SDS011;31152;49.190;8.122;2023-04-25T00:50:33;10.73;;;4.85;;
30185;SDS011;31152;49.190;8.122;2023-04-25T00:53:00;8.85;;;4.53;;
30185;SDS011;31152;49.190;8.122;2023-04-25T00:55:28;7.80;;;4.53;;
30185;SDS011;31152;49.190;8.122;2023-04-25T00:57:55;6.10;;;4.38;;
30185;SDS011;31152;49.190;8.122;2023-04-25T01:00:22;7.55;;;4.78;;
30185;SDS011;31152;49.190;8.122;2023-04-25T01:02:48;7.95;;;4.53;;
30185;SDS011;31152;49.190;8.122;2023-04-25T01:05:19;5.15;;;3.95;;
30185;SDS011;31152;49.190;8.122;2023-04-25T01:07:47;9.40;;;4.50;;
30185;SDS011;31152;49.190;8.122;2023-04-25T01:10:14;7.47;;;3.78;;
30185;SDS011;31152;49.190;8.122;2023-04-25T01:12:41;6.30;;;3.90;;
30185;SDS011;31152;49.190;8.122;2023-04-25T01:15:08;8.13;;;3.97;;
30185;SDS011;31152;49.190;8.122;2023-04-25T01:17:35;5.82;;;3.90;;
30185;SDS011;31152;49.190;8.122;2023-04-25T01:20:03;6.05;;;3.47;;
30185;SDS011;31152;49.190;8.122;2023-04-25T01:22:31;5.18;;;3.83;;
30185;SDS011;31152;49.190;8.122;2023-04-25T01:24:58;8.15;;;3.70;;
30185;SDS011;31152;49.190;8.122;2023-04-25T01:27:26;5.55;;;3.67;;
30185;SDS011;31152;49.190;8.122;2023-04-25T01:29:54;4.68;;;3.22;;
30185;SDS011;31152;49.190;8.122;2023-04-25T01:32:22;7.22;;;3.65;;
30185;SDS011;31152;49.190;8.122;2023-04-25T01:34:49;7.10;;;3.67;;
30185;SDS011;31152;49.190;8.122;2023-04-25T01:37:16;5.30;;;3.25;;
30185;SDS011;31152;49.190;8.122;2023-04-25T01:39:43;6.40;;;3.90;;
30185;SDS011;31152;49.190;8.122;2023-04-25T01:42:11;5.20;;;4.20;;
30185;SDS011;31152;49.190;8.122;2023-04-25T01:44:39;6.05;;;4.30;;
30185;SDS011;31152;49.190;8.122;2023-04-25T01:47:05;8.00;;;5.40;;
30185;SDS011;31152;49.190;8.122;2023-04-25T01:49:35;6.68;;;4.63;;
30185;SDS011;31152;49.190;8.122;2023-04-25T01:52:01;9.50;;;4.93;;
30185;SDS011;31152;49.190;8.122;2023-04-25T01:54:30;7.50;;;4.93;;
30185;SDS011;31152;49.190;8.122;2023-04-25T01:56:57;6.93;;;4.72;;
30185;SDS011;31152;49.190;8.122;2023-04-25T01:59:24;6.43;;;4.68;;
30185;SDS011;31152;49.190;8.122;2023-04-25T02:01:51;8.75;;;4.57;;
30185;SDS011;31152;49.190;8.122;2023-04-25T02:04:18;6.18;;;4.70;;
30185;SDS011;31152;49.190;8.122;2023-04-25T02:06:47;7.20;;;4.28;;
30185;SDS011;31152;49.190;8.122;2023-04-25T02:09:16;7.43;;;4.30;;
30185;SDS011;31152;49.190;8.122;2023-04-25T02:11:43;6.13;;;4.40;;
30185;SDS011;31152;49.190;8.122;2023-04-25T02:14:10;5.72;;;4.13;;
30185;SDS011;31152;49.190;8.122;2023-04-25T02:16:39;7.53;;;4.72;;
30185;SDS011;31152;49.190;8.122;2023-04-25T02:19:06;7.50;;;4.88;;
30185;SDS011;31152;49.190;8.122;2023-04-25T02:21:33;7.07;;;4.93;;
30185;SDS011;31152;49.190;8.122;2023-04-25T02:24:02;7.93;;;4.63;;
30185;SDS011;31152;49.190;8.122;2023-04-25T02:26:29;5.35;;;4.30;;
30185;SDS011;31152;49.190;8.122;2023-04-25T02:28:58;5.65;;;4.38;;
30185;SDS011;31152;49.190;8.122;2023-04-25T02:31:28;6.20;;;4.25;;
30185;SDS011;31152;49.190;8.122;2023-04-25T02:33:56;6.60;;;4.85;;
30185;SDS011;31152;49.190;8.122;2023-04-25T02:36:22;6.68;;;4.22;;
30185;SDS011;31152;49.190;8.122;2023-04-25T02:38:50;6.88;;;5.05;;
30185;SDS011;31152;49.190;8.122;2023-04-25T02:41:16;6.07;;;4.60;;
30185;SDS011;31152;49.190;8.122;2023-04-25T02:43:43;8.63;;;4.95;;
30185;SDS011;31152;49.190;8.122;2023-04-25T02:46:10;7.55;;;4.78;;
30185;SDS011;31152;49.190;8.122;2023-04-25T02:48:42;7.55;;;4.47;;
30185;SDS011;31152;49.190;8.122;2023-04-25T02:51:09;5.85;;;4.85;;
30185;SDS011;31152;49.190;8.122;2023-04-25T02:53:38;7.03;;;4.50;;
30185;SDS011;31152;49.190;8.122;2023-04-25T02:56:05;8.95;;;4.57;;
30185;SDS011;31152;49.190;8.122;2023-04-25T02:58:34;9.05;;;4.53;;
30185;SDS011;31152;49.190;8.122;2023-04-25T03:01:01;5.45;;;4.40;;
30185;SDS011;31152;49.190;8.122;2023-04-25T03:03:30;6.40;;;3.90;;
30185;SDS011;31152;49.190;8.122;2023-04-25T03:05:57;7.28;;;4.38;;
30185;SDS011;31152;49.190;8.122;2023-04-25T03:08:23;7.05;;;4.00;;
30185;SDS011;31152;49.190;8.122;2023-04-25T03:10:51;7.40;;;4.20;;
30185;SDS011;31152;49.190;8.122;2023-04-25T03:13:21;7.32;;;4.93;;
30185;SDS011;31152;49.190;8.122;2023-04-25T03:15:48;7.00;;;4.32;;
30185;SDS011;31152;49.190;8.122;2023-04-25T03:18:14;6.70;;;4.28;;
30185;SDS011;31152;49.190;8.122;2023-04-25T03:20:41;6.90;;;4.80;;
30185;SDS011;31152;49.190;8.122;2023-04-25T03:23:08;6.25;;;4.45;;
30185;SDS011;31152;49.190;8.122;2023-04-25T03:25:35;6.53;;;4.90;;
30185;SDS011;31152;49.190;8.122;2023-04-25T03:28:02;6.75;;;5.30;;
30185;SDS011;31152;49.190;8.122;2023-04-25T03:30:28;7.57;;;5.47;;
30185;SDS011;31152;49.190;8.122;2023-04-25T03:32:58;8.32;;;5.40;;
30185;SDS011;31152;49.190;8.122;2023-04-25T03:35:25;9.27;;;5.97;;
30185;SDS011;31152;49.190;8.122;2023-04-25T03:37:54;9.73;;;5.50;;
30185;SDS011;31152;49.190;8.122;2023-04-25T03:40:23;10.07;;;6.15;;
30185;SDS011;31152;49.190;8.122;2023-04-25T03:42:54;10.05;;;6.22;;
30185;SDS011;31152;49.190;8.122;2023-04-25T03:45:21;9.43;;;6.20;;
30185;SDS011;31152;49.190;8.122;2023-04-25T03:47:48;9.82;;;6.35;;
30185;SDS011;31152;49.190;8.122;2023-04-25T03:50:14;8.00;;;6.15;;
30185;SDS011;31152;49.190;8.122;2023-04-25T03:52:43;11.35;;;6.55;;
30185;SDS011;31152;49.190;8.122;2023-04-25T03:55:10;13.30;;;6.80;;
30185;SDS011;31152;49.190;8.122;2023-04-25T03:57:37;10.85;;;6.28;;
30185;SDS011;31152;49.190;8.122;2023-04-25T04:00:04;11.98;;;6.38;;
30185;SDS011;31152;49.190;8.122;2023-04-25T04:02:34;10.75;;;7.35;;
30185;SDS011;31152;49.190;8.122;2023-04-25T04:05:03;11.20;;;6.82;;
30185;SDS011;31152;49.190;8.122;2023-04-25T04:07:32;13.20;;;7.20;;
30185;SDS011;31152;49.190;8.122;2023-04-25T04:09:59;10.15;;;6.78;;
30185;SDS011;31152;49.190;8.122;2023-04-25T04:12:26;12.05;;;7.35;;
30185;SDS011;31152;49.190;8.122;2023-04-25T04:14:55;14.57;;;8.00;;
30185;SDS011;31152;49.190;8.122;2023-04-25T04:17:21;10.23;;;7.32;;
30185;SDS011;31152;49.190;8.122;2023-04-25T04:19:48;18.30;;;7.15;;
30185;SDS011;31152;49.190;8.122;2023-04-25T04:22:15;10.18;;;7.07;;
30185;SDS011;31152;49.190;8.122;2023-04-25T04:24:44;11.65;;;6.60;;
30185;SDS011;31152;49.190;8.122;2023-04-25T04:27:12;9.48;;;6.45;;
30185;SDS011;31152;49.190;8.122;2023-04-25T04:29:39;8.18;;;6.28;;
30185;SDS011;31152;49.190;8.122;2023-04-25T04:32:08;10.15;;;6.40;;
30185;SDS011;31152;49.190;8.122;2023-04-25T04:34:37;9.45;;;6.35;;
30185;SDS011;31152;49.190;8.122;2023-04-25T04:37:05;9.65;;;6.47;;
30185;SDS011;31152;49.190;8.122;2023-04-25T04:39:33;12.27;;;6.95;;
30185;SDS011;31152;49.190;8.122;2023-04-25T04:42:02;12.15;;;7.35;;
30185;SDS011;31152;49.190;8.122;2023-04-25T04:44:29;10.57;;;7.13;;
30185;SDS011;31152;49.190;8.122;2023-04-25T04:46:59;11.57;;;7.80;;
30185;SDS011;31152;49.190;8.122;2023-04-25T04:49:26;9.80;;;7.35;;
30185;SDS011;31152;49.190;8.122;2023-04-25T04:51:52;11.15;;;7.55;;
30185;SDS011;31152;49.190;8.122;2023-04-25T04:54:23;9.93;;;7.30;;
30185;SDS011;31152;49.190;8.122;2023-04-25T04:56:53;10.23;;;7.53;;
30185;SDS011;31152;49.190;8.122;2023-04-25T04:59:20;11.65;;;7.28;;
30185;SDS011;31152;49.190;8.122;2023-04-25T05:01:47;13.63;;;8.07;;
30185;SDS011;31152;49.190;8.122;2023-04-25T05:04:14;13.20;;;8.57;;
30185;SDS011;31152;49.190;8.122;2023-04-25T05:06:40;13.95;;;8.80;;
30185;SDS011;31152;49.190;8.122;2023-04-25T05:09:07;15.15;;;8.10;;
30185;SDS011;31152;49.190;8.122;2023-04-25T05:11:34;13.32;;;8.73;;
30185;SDS011;31152;49.190;8.122;2023-04-25T05:14:00;12.25;;;8.15;;
30185;SDS011;31152;49.190;8.122;2023-04-25T05:16:32;12.43;;;8.77;;
30185;SDS011;31152;49.190;8.122;2023-04-25T05:18:59;12.10;;;8.63;;
30185;SDS011;31152;49.190;8.122;2023-04-25T05:21:28;12.82;;;8.50;;
30185;SDS011;31152;49.190;8.122;2023-04-25T05:23:54;12.88;;;9.27;;
30185;SDS011;31152;49.190;8.122;2023-04-25T05:26:22;16.05;;;10.00;;
30185;SDS011;31152;49.190;8.122;2023-04-25T05:28:48;16.38;;;9.50;;
30185;SDS011;31152;49.190;8.122;2023-04-25T05:31:19;14.23;;;10.18;;
30185;SDS011;31152;49.190;8.122;2023-04-25T05:33:48;14.05;;;9.48;;
30185;SDS011;31152;49.190;8.122;2023-04-25T05:36:16;24.30;;;11.25;;
30185;SDS011;31152;49.190;8.122;2023-04-25T05:38:45;14.02;;;10.30;;
30185;SDS011;31152;49.190;8.122;2023-04-25T05:41:11;15.73;;;10.52;;
30185;SDS011;31152;49.190;8.122;2023-04-25T05:43:38;15.70;;;10.60;;
30185;SDS011;31152;49.190;8.122;2023-04-25T05:46:05;12.65;;;9.52;;
30185;SDS011;31152;49.190;8.122;2023-04-25T05:48:32;13.85;;;8.88;;
30185;SDS011;31152;49.190;8.122;2023-04-25T05:50:58;14.50;;;8.50;;
30185;SDS011;31152;49.190;8.122;2023-04-25T05:53:25;12.10;;;8.27;;
30185;SDS011;31152;49.190;8.122;2023-04-25T05:55:52;11.77;;;8.70;;
30185;SDS011;31152;49.190;8.122;2023-04-25T05:58:21;12.90;;;8.20;;
30185;SDS011;31152;49.190;8.122;2023-04-25T06:00:48;15.38;;;8.18;;
30185;SDS011;31152;49.190;8.122;2023-04-25T06:03:14;12.60;;;8.38;;
30185;SDS011;31152;49.190;8.122;2023-04-25T06:05:46;12.98;;;8.40;;
30185;SDS011;31152;49.190;8.122;2023-04-25T06:08:13;11.77;;;8.18;;
30185;SDS011;31152;49.190;8.122;2023-04-25T06:10:40;15.90;;;8.45;;
30185;SDS011;31152;49.190;8.122;2023-04-25T06:13:06;18.25;;;9.30;;
30185;SDS011;31152;49.190;8.122;2023-04-25T06:15:35;14.70;;;8.57;;
30185;SDS011;31152;49.190;8.122;2023-04-25T06:18:02;15.05;;;9.70;;
30185;SDS011;31152;49.190;8.122;2023-04-25T06:20:31;14.32;;;9.73;;
30185;SDS011;31152;49.190;8.122;2023-04-25T06:22:58;15.52;;;9.75;;
30185;SDS011;31152;49.190;8.122;2023-04-25T06:25:25;14.82;;;9.60;;
30185;SDS011;31152;49.190;8.122;2023-04-25T06:27:51;14.57;;;10.70;;
30185;SDS011;31152;49.190;8.122;2023-04-25T06:30:18;18.10;;;10.32;;
30185;SDS011;31152;49.190;8.122;2023-04-25T06:32:48;16.15;;;10.25;;
30185;SDS011;31152;49.190;8.122;2023-04-25T06:35:15;16.08;;;10.75;;
30185;SDS011;31152;49.190;8.122;2023-04-25T06:37:42;16.20;;;11.00;;
30185;SDS011;31152;49.190;8.122;2023-04-25T06:40:09;20.00;;;11.48;;
30185;SDS011;31152;49.190;8.122;2023-04-25T06:42:35;17.33;;;11.63;;
30185;SDS011;31152;49.190;8.122;2023-04-25T06:45:04;17.63;;;11.68;;
30185;SDS011;31152;49.190;8.122;2023-04-25T06:47:31;16.52;;;10.52;;
30185;SDS011;31152;49.190;8.122;2023-04-25T06:49:58;17.60;;;11.55;;
30185;SDS011;31152;49.190;8.122;2023-04-25T06:52:25;20.85;;;12.02;;
30185;SDS011;31152;49.190;8.122;2023-04-25T06:54:54;15.45;;;10.93;;
30185;SDS011;31152;49.190;8.122;2023-04-25T06:57:23;16.13;;;11.20;;
30185;SDS011;31152;49.190;8.122;2023-04-25T06:59:49;16.60;;;11.75;;
30185;SDS011;31152;49.190;8.122;2023-04-25T07:02:16;19.92;;;12.57;;
30185;SDS011;31152;49.190;8.122;2023-04-25T07:04:43;16.75;;;11.82;;
30185;SDS011;31152;49.190;8.122;2023-04-25T07:07:13;17.52;;;11.85;;
30185;SDS011;31152;49.190;8.122;2023-04-25T07:09:39;16.67;;;10.90;;
30185;SDS011;31152;49.190;8.122;2023-04-25T07:12:06;14.65;;;10.05;;
30185;SDS011;31152;49.190;8.122;2023-04-25T07:14:33;17.00;;;11.63;;
30185;SDS011;31152;49.190;8.122;2023-04-25T07:16:59;16.30;;;11.60;;
30185;SDS011;31152;49.190;8.122;2023-04-25T07:19:26;17.20;;;11.77;;
30185;SDS011;31152;49.190;8.122;2023-04-25T07:21:55;14.63;;;10.65;;
30185;SDS011;31152;49.190;8.122;2023-04-25T07:24:22;17.30;;;11.15;;
30185;SDS011;31152;49.190;8.122;2023-04-25T07:26:49;16.58;;;10.80;;
30185;SDS011;31152;49.190;8.122;2023-04-25T07:29:16;17.48;;;11.65;;
30185;SDS011;31152;49.190;8.122;2023-04-25T07:31:42;18.52;;;12.07;;
30185;SDS011;31152;49.190;8.122;2023-04-25T07:34:09;18.65;;;10.63;;
30185;SDS011;31152;49.190;8.122;2023-04-25T07:36:36;18.70;;;11.82;;
30185;SDS011;31152;49.190;8.122;2023-04-25T07:39:03;17.30;;;11.50;;
30185;SDS011;31152;49.190;8.122;2023-04-25T07:41:30;18.83;;;12.70;;
30185;SDS011;31152;49.190;8.122;2023-04-25T07:43:56;18.33;;;11.65;;
30185;SDS011;31152;49.190;8.122;2023-04-25T07:46:23;17.98;;;12.00;;
30185;SDS011;31152;49.190;8.122;2023-04-25T07:48:50;16.98;;;11.18;;
30185;SDS011;31152;49.190;8.122;2023-04-25T07:51:18;22.52;;;12.25;;
30185;SDS011;31152;49.190;8.122;2023-04-25T07:53:46;16.48;;;11.73;;
30185;SDS011;31152;49.190;8.122;2023-04-25T07:56:15;19.40;;;12.18;;
30185;SDS011;31152;49.190;8.122;2023-04-25T07:58:42;18.17;;;11.40;;
30185;SDS011;31152;49.190;8.122;2023-04-25T08:01:09;18.25;;;11.73;;
30185;SDS011;31152;49.190;8.122;2023-04-25T08:03:35;20.52;;;11.77;;
30185;SDS011;31152;49.190;8.122;2023-04-25T08:06:02;17.05;;;10.43;;
30185;SDS011;31152;49.190;8.122;2023-04-25T08:08:33;19.13;;;11.38;;
30185;SDS011;31152;49.190;8.122;2023-04-25T08:11:00;20.63;;;12.15;;
30185;SDS011;31152;49.190;8.122;2023-04-25T08:13:26;19.88;;;10.80;;
30185;SDS011;31152;49.190;8.122;2023-04-25T08:15:53;19.70;;;11.25;;
30185;SDS011;31152;49.190;8.122;2023-04-25T08:18:20;15.25;;;10.07;;
30185;SDS011;31152;49.190;8.122;2023-04-25T08:20:47;18.98;;;11.20;;
30185;SDS011;31152;49.190;8.122;2023-04-25T08:23:14;20.20;;;11.52;;
30185;SDS011;31152;49.190;8.122;2023-04-25T08:25:43;15.55;;;10.68;;
30185;SDS011;31152;49.190;8.122;2023-04-25T08:28:12;18.15;;;12.02;;
30185;SDS011;31152;49.190;8.122;2023-04-25T08:30:39;22.02;;;11.23;;
30185;SDS011;31152;49.190;8.122;2023-04-25T08:33:06;27.88;;;10.98;;
30185;SDS011;31152;49.190;8.122;2023-04-25T08:35:33;22.67;;;9.60;;
30185;SDS011;31152;49.190;8.122;2023-04-25T08:37:59;20.65;;;10.27;;
30185;SDS011;31152;49.190;8.122;2023-04-25T08:40:27;23.40;;;10.05;;
30185;SDS011;31152;49.190;8.122;2023-04-25T08:42:57;21.70;;;9.80;;
30185;SDS011;31152;49.190;8.122;2023-04-25T08:45:26;19.67;;;9.48;;
30185;SDS011;31152;49.190;8.122;2023-04-25T08:47:54;16.10;;;8.80;;
30185;SDS011;31152;49.190;8.122;2023-04-25T08:50:23;23.80;;;9.60;;
30185;SDS011;31152;49.190;8.122;2023-04-25T08:52:53;22.75;;;9.68;;
30185;SDS011;31152;49.190;8.122;2023-04-25T08:55:21;18.38;;;9.88;;
30185;SDS011;31152;49.190;8.122;2023-04-25T08:57:50;20.58;;;10.50;;
30185;SDS011;31152;49.190;8.122;2023-04-25T09:00:19;21.60;;;9.98;;
30185;SDS011;31152;49.190;8.122;2023-04-25T09:02:48;20.42;;;9.70;;
30185;SDS011;31152;49.190;8.122;2023-04-25T09:05:16;19.95;;;10.23;;
30185;SDS011;31152;49.190;8.122;2023-04-25T09:07:46;21.05;;;8.75;;
30185;SDS011;31152;49.190;8.122;2023-04-25T09:10:16;17.05;;;8.35;;
30185;SDS011;31152;49.190;8.122;2023-04-25T09:12:42;17.42;;;7.53;;
30185;SDS011;31152;49.190;8.122;2023-04-25T09:15:10;18.70;;;7.97;;
30185;SDS011;31152;49.190;8.122;2023-04-25T09:17:45;16.83;;;6.95;;
30185;SDS011;31152;49.190;8.122;2023-04-25T09:20:14;25.38;;;8.35;;
30185;SDS011;31152;49.190;8.122;2023-04-25T09:22:43;18.85;;;8.43;;
30185;SDS011;31152;49.190;8.122;2023-04-25T09:25:14;19.15;;;8.48;;
30185;SDS011;31152;49.190;8.122;2023-04-25T09:27:51;25.65;;;8.98;;
30185;SDS011;31152;49.190;8.122;2023-04-25T09:30:26;21.20;;;8.88;;
30185;SDS011;31152;49.190;8.122;2023-04-25T09:32:56;22.38;;;8.73;;
30185;SDS011;31152;49.190;8.122;2023-04-25T09:35:32;23.95;;;9.25;;
30185;SDS011;31152;49.190;8.122;2023-04-25T09:38:10;23.23;;;8.50;;
30185;SDS011;31152;49.190;8.122;2023-04-25T09:40:42;21.05;;;9.30;;
30185;SDS011;31152;49.190;8.122;2023-04-25T09:43:21;22.00;;;9.27;;
30185;SDS011;31152;49.190;8.122;2023-04-25T09:45:52;26.27;;;9.75;;
30185;SDS011;31152;49.190;8.122;2023-04-25T09:48:24;27.67;;;9.82;;
30185;SDS011;31152;49.190;8.122;2023-04-25T09:51:12;20.77;;;8.80;;
30185;SDS011;31152;49.190;8.122;2023-04-25T09:53:43;24.80;;;9.45;;
30185;SDS011;31152;49.190;8.122;2023-04-25T09:56:12;20.45;;;9.27;;
30185;SDS011;31152;49.190;8.122;2023-04-25T09:58:40;23.30;;;9.07;;
30185;SDS011;31152;49.190;8.122;2023-04-25T10:01:08;22.58;;;9.13;;
30185;SDS011;31152;49.190;8.122;2023-04-25T10:03:39;24.25;;;9.32;;
30185;SDS011;31152;49.190;8.122;2023-04-25T10:06:13;24.55;;;9.60;;
30185;SDS011;31152;49.190;8.122;2023-04-25T10:08:44;23.63;;;9.07;;
30185;SDS011;31152;49.190;8.122;2023-04-25T10:11:18;22.50;;;9.13;;
30185;SDS011;31152;49.190;8.122;2023-04-25T10:13:45;25.77;;;9.52;;
30185;SDS011;31152;49.190;8.122;2023-04-25T10:16:12;21.40;;;9.50;;
30185;SDS011;31152;49.190;8.122;2023-04-25T10:18:39;25.55;;;9.65;;
30185;SDS011;31152;49.190;8.122;2023-04-25T10:21:08;18.65;;;9.18;;
30185;SDS011;31152;49.190;8.122;2023-04-25T10:23:38;19.77;;;9.95;;
30185;SDS011;31152;49.190;8.122;2023-04-25T10:26:06;21.13;;;9.43;;
30185;SDS011;31152;49.190;8.122;2023-04-25T10:29:12;22.67;;;9.98;;
30185;SDS011;31152;49.190;8.122;2023-04-25T10:31:31;22.67;;;9.48;;
30185;SDS011;31152;49.190;8.122;2023-04-25T10:34:01;22.42;;;10.27;;
30185;SDS011;31152;49.190;8.122;2023-04-25T10:36:31;24.58;;;10.00;;
30185;SDS011;31152;49.190;8.122;2023-04-25T10:38:58;22.40;;;9.27;;
30185;SDS011;31152;49.190;8.122;2023-04-25T10:41:45;19.02;;;7.80;;
30185;SDS011;31152;49.190;8.122;2023-04-25T10:44:14;16.65;;;7.05;;
30185;SDS011;31152;49.190;8.122;2023-04-25T10:46:41;13.10;;;6.88;;
30185;SDS011;31152;49.190;8.122;2023-04-25T10:49:11;11.60;;;5.72;;
30185;SDS011;31152;49.190;8.122;2023-04-25T11:00:08;7.55;;;3.97;;
30185;SDS011;31152;49.190;8.122;2023-04-25T11:02:42;7.72;;;4.85;;
30185;SDS011;31152;49.190;8.122;2023-04-25T11:05:32;6.57;;;3.97;;
30185;SDS011;31152;49.190;8.122;2023-04-25T11:08:12;9.50;;;4.50;;
30185;SDS011;31152;49.190;8.122;2023-04-25T11:10:44;9.48;;;4.30;;
30185;SDS011;31152;49.190;8.122;2023-04-25T11:13:15;6.28;;;4.38;;
30185;SDS011;31152;49.190;8.122;2023-04-25T11:15:42;7.55;;;3.67;;
30185;SDS011;31152;49.190;8.122;2023-04-25T11:18:08;7.95;;;3.55;;
30185;SDS011;31152;49.190;8.122;2023-04-25T11:20:35;6.43;;;2.72;;
30185;SDS011;31152;49.190;8.122;2023-04-25T11:23:02;4.28;;;2.28;;
30185;SDS011;31152;49.190;8.122;2023-04-25T11:25:30;7.55;;;2.60;;
30185;SDS011;31152;49.190;8.122;2023-04-25T11:27:58;6.20;;;2.20;;
30185;SDS011;31152;49.190;8.122;2023-04-25T11:30:27;4.35;;;2.75;;
30185;SDS011;31152;49.190;8.122;2023-04-25T11:33:01;5.95;;;3.10;;
30185;SDS011;31152;49.190;8.122;2023-04-25T11:35:29;7.43;;;3.40;;
30185;SDS011;31152;49.190;8.122;2023-04-25T11:37:59;3.47;;;2.70;;
30185;SDS011;31152;49.190;8.122;2023-04-25T11:40:26;5.25;;;3.05;;
30185;SDS011;31152;49.190;8.122;2023-04-25T11:42:53;6.82;;;3.40;;
30185;SDS011;31152;49.190;8.122;2023-04-25T11:45:23;7.10;;;3.80;;
30185;SDS011;31152;49.190;8.122;2023-04-25T11:47:50;7.28;;;3.78;;
30185;SDS011;31152;49.190;8.122;2023-04-25T11:50:17;4.95;;;3.38;;
30185;SDS011;31152;49.190;8.122;2023-04-25T11:52:47;6.40;;;3.65;;
30185;SDS011;31152;49.190;8.122;2023-04-25T11:55:17;8.48;;;4.03;;
30185;SDS011;31152;49.190;8.122;2023-04-25T11:57:46;8.73;;;4.03;;
30185;SDS011;31152;49.190;8.122;2023-04-25T12:00:18;6.20;;;3.92;;
30185;SDS011;31152;49.190;8.122;2023-04-25T12:02:47;6.60;;;3.85;;
30185;SDS011;31152;49.190;8.122;2023-04-25T12:07:52;8.27;;;4.32;;
30185;SDS011;31152;49.190;8.122;2023-04-25T12:10:23;8.45;;;4.65;;
30185;SDS011;31152;49.190;8.122;2023-04-25T12:12:51;7.68;;;4.13;;
30185;SDS011;31152;49.190;8.122;2023-04-25T12:15:22;8.23;;;4.28;;
30185;SDS011;31152;49.190;8.122;2023-04-25T12:17:52;6.85;;;3.55;;
30185;SDS011;31152;49.190;8.122;2023-04-25T12:20:21;8.05;;;4.32;;
30185;SDS011;31152;49.190;8.122;2023-04-25T12:22:51;6.45;;;4.32;;
30185;SDS011;31152;49.190;8.122;2023-04-25T12:28:10;10.88;;;4.13;;
30185;SDS011;31152;49.190;8.122;2023-04-25T12:33:32;7.00;;;3.80;;
30185;SDS011;31152;49.190;8.122;2023-04-25T12:36:00;9.55;;;4.25;;
30185;SDS011;31152;49.190;8.122;2023-04-25T12:38:36;10.18;;;4.28;;
30185;SDS011;31152;49.190;8.122;2023-04-25T12:41:04;9.75;;;3.85;;
30185;SDS011;31152;49.190;8.122;2023-04-25T12:43:31;8.43;;;3.38;;
30185;SDS011;31152;49.190;8.122;2023-04-25T12:45:58;8.93;;;3.88;;
30185;SDS011;31152;49.190;8.122;2023-04-25T12:48:25;11.88;;;4.22;;
30185;SDS011;31152;49.190;8.122;2023-04-25T12:50:52;7.22;;;3.90;;
30185;SDS011;31152;49.190;8.122;2023-04-25T12:53:19;10.43;;;3.72;;
30185;SDS011;31152;49.190;8.122;2023-04-25T12:55:47;10.07;;;3.88;;
30185;SDS011;31152;49.190;8.122;2023-04-25T12:58:15;8.07;;;4.05;;
30185;SDS011;31152;49.190;8.122;2023-04-25T13:00:43;7.32;;;3.42;;
30185;SDS011;31152;49.190;8.122;2023-04-25T13:03:11;9.82;;;3.78;;
30185;SDS011;31152;49.190;8.122;2023-04-25T13:05:39;8.38;;;4.03;;
30185;SDS011;31152;49.190;8.122;2023-04-25T13:08:06;10.88;;;4.57;;
30185;SDS011;31152;49.190;8.122;2023-04-25T13:10:33;7.45;;;4.47;;
30185;SDS011;31152;49.190;8.122;2023-04-25T13:13:00;7.70;;;4.05;;
30185;SDS011;31152;49.190;8.122;2023-04-25T13:15:27;8.45;;;4.13;;
30185;SDS011;31152;49.190;8.122;2023-04-25T13:17:57;5.88;;;3.58;;
30185;SDS011;31152;49.190;8.122;2023-04-25T13:20:24;10.43;;;3.80;;
30185;SDS011;31152;49.190;8.122;2023-04-25T13:22:51;9.25;;;3.97;;
30185;SDS011;31152;49.190;8.122;2023-04-25T13:25:17;7.65;;;4.07;;
30185;SDS011;31152;49.190;8.122;2023-04-25T13:27:44;8.02;;;4.03;;
30185;SDS011;31152;49.190;8.122;2023-04-25T13:30:12;5.57;;;4.35;;
30185;SDS011;31152;49.190;8.122;2023-04-25T13:32:39;6.53;;;3.80;;
30185;SDS011;31152;49.190;8.122;2023-04-25T13:35:08;8.57;;;4.00;;
30185;SDS011;31152;49.190;8.122;2023-04-25T13:37:36;10.75;;;4.22;;
30185;SDS011;31152;49.190;8.122;2023-04-25T13:40:07;8.35;;;4.47;;
30185;SDS011;31152;49.190;8.122;2023-04-25T13:42:36;9.15;;;3.90;;
30185;SDS011;31152;49.190;8.122;2023-04-25T13:45:04;9.55;;;4.22;;
30185;SDS011;31152;49.190;8.122;2023-04-25T13:47:32;8.48;;;4.55;;
30185;SDS011;31152;49.190;8.122;2023-04-25T13:49:59;9.07;;;4.85;;
30185;SDS011;31152;49.190;8.122;2023-04-25T13:52:29;7.82;;;4.57;;
30185;SDS011;31152;49.190;8.122;2023-04-25T13:54:56;12.30;;;4.57;;
30185;SDS011;31152;49.190;8.122;2023-04-25T13:57:22;9.43;;;4.53;;
30185;SDS011;31152;49.190;8.122;2023-04-25T13:59:49;9.13;;;4.63;;
30185;SDS011;31152;49.190;8.122;2023-04-25T14:02:17;8.90;;;4.32;;
30185;SDS011;31152;49.190;8.122;2023-04-25T14:04:44;10.32;;;5.60;;
30185;SDS011;31152;49.190;8.122;2023-04-25T14:07:13;10.20;;;4.28;;
30185;SDS011;31152;49.190;8.122;2023-04-25T14:09:44;7.97;;;4.55;;
30185;SDS011;31152;49.190;8.122;2023-04-25T14:12:11;6.45;;;4.30;;
30185;SDS011;31152;49.190;8.122;2023-04-25T14:14:40;6.13;;;4.43;;
30185;SDS011;31152;49.190;8.122;2023-04-25T14:17:08;7.57;;;4.22;;
30185;SDS011;31152;49.190;8.122;2023-04-25T14:19:35;6.82;;;4.40;;
30185;SDS011;31152;49.190;8.122;2023-04-25T14:22:04;6.30;;;4.30;;
30185;SDS011;31152;49.190;8.122;2023-04-25T14:24:33;8.15;;;4.47;;
30185;SDS011;31152;49.190;8.122;2023-04-25T14:27:01;6.05;;;3.92;;
30185;SDS011;31152;49.190;8.122;2023-04-25T14:29:28;9.88;;;5.10;;
30185;SDS011;31152;49.190;8.122;2023-04-25T14:31:55;11.00;;;5.05;;
30185;SDS011;31152;49.190;8.122;2023-04-25T14:34:23;7.13;;;4.63;;
30185;SDS011;31152;49.190;8.122;2023-04-25T14:36:51;10.75;;;4.88;;
30185;SDS011;31152;49.190;8.122;2023-04-25T14:39:21;6.78;;;4.63;;
30185;SDS011;31152;49.190;8.122;2023-04-25T14:41:49;7.55;;;4.47;;
30185;SDS011;31152;49.190;8.122;2023-04-25T14:44:18;6.22;;;4.63;;
30185;SDS011;31152;49.190;8.122;2023-04-25T14:46:45;9.18;;;4.80;;
30185;SDS011;31152;49.190;8.122;2023-04-25T14:49:12;7.35;;;5.00;;
30185;SDS011;31152;49.190;8.122;2023-04-25T14:51:39;7.07;;;5.18;;
30185;SDS011;31152;49.190;8.122;2023-04-25T14:54:06;7.82;;;4.90;;
30185;SDS011;31152;49.190;8.122;2023-04-25T14:56:34;6.40;;;4.63;;
30185;SDS011;31152;49.190;8.122;2023-04-25T14:59:01;7.38;;;4.78;;
30185;SDS011;31152;49.190;8.122;2023-04-25T15:01:28;9.68;;;5.05;;